createdAt,value
2018-09-20T00:02:15.058Z,101746.28
2018-09-20T00:04:43.973Z,101750.64
2018-09-20T00:07:13.596Z,101755.48
2018-09-20T00:09:42.493Z,101752.85
2018-09-20T00:12:11.562Z,101761.61
2018-09-20T00:14:41.153Z,101758.53
2018-09-20T00:17:10.460Z,101753.83
2018-09-20T00:19:40.294Z,101752.85
2018-09-20T00:22:10.087Z,101744.28
2018-09-20T00:24:39.559Z,101745.28
2018-09-20T00:27:08.651Z,101740.52
2018-09-20T00:29:37.580Z,101744.09
2018-09-20T00:32:06.978Z,101738.63
2018-09-20T00:34:36.027Z,101739.36
2018-09-20T00:37:05.160Z,101740.52
2018-09-20T00:39:33.989Z,101731.73
2018-09-20T00:42:03.083Z,101729.30
2018-09-20T00:44:32.946Z,101726.84
2018-09-20T00:47:02.599Z,101729.88
2018-09-20T00:49:32.145Z,101727.41
2018-09-20T00:52:01.415Z,101728.66
2018-09-20T00:54:30.338Z,101723.25
2018-09-20T00:57:01.135Z,101719.95
2018-09-20T00:59:30.154Z,101713.48
2018-09-20T01:01:59.185Z,101715.30
2018-09-20T01:04:29.107Z,101708.19
2018-09-20T01:07:01.340Z,101707.02
2018-09-20T01:09:30.280Z,101713.43
2018-09-20T01:12:00.044Z,101710.51
2018-09-20T01:14:29.270Z,101711.05
2018-09-20T01:16:58.918Z,101714.98
2018-09-20T01:19:28.916Z,101717.36
2018-09-20T01:21:59.318Z,101718.52
2018-09-20T01:24:28.120Z,101725.98
2018-09-20T01:26:58.224Z,101725.23
2018-09-20T01:29:27.095Z,101726.77
2018-09-20T01:31:56.104Z,101729.91
2018-09-20T01:34:26.506Z,101731.56
2018-09-20T01:36:55.400Z,101730.03
2018-09-20T01:39:25.252Z,101726.48
2018-09-20T01:41:54.903Z,101726.98
2018-09-20T01:44:24.805Z,101728.42
2018-09-20T01:46:54.527Z,101722.27
2018-09-20T01:49:26.511Z,101727.57
2018-09-20T01:51:56.184Z,101727.57
2018-09-20T01:54:25.196Z,101723.78
2018-09-20T01:56:55.655Z,101722.45
2018-09-20T01:59:24.551Z,101723.95
2018-09-20T02:01:53.417Z,101721.63
2018-09-20T02:04:23.304Z,101716.52
2018-09-20T02:06:54.307Z,101717.17
2018-09-20T02:09:24.179Z,101715.06
2018-09-20T02:11:53.398Z,101722.63
2018-09-20T02:14:23.374Z,101725.17
2018-09-20T02:16:52.246Z,101725.33
2018-09-20T02:19:22.100Z,101728.70
2018-09-20T02:21:51.169Z,101732.61
2018-09-20T02:24:20.806Z,101739.61
2018-09-20T02:26:50.068Z,101737.67
2018-09-20T02:29:19.066Z,101736.45
2018-09-20T02:34:23.669Z,101741.30
2018-09-20T02:36:52.653Z,101736.11
2018-09-20T02:39:22.551Z,101746.14
2018-09-20T02:41:52.536Z,101749.06
2018-09-20T02:44:22.130Z,101744.37
2018-09-20T02:46:52.159Z,101746.14
2018-09-20T02:49:21.646Z,101744.44
2018-09-20T02:51:50.538Z,101745.30
2018-09-20T02:54:20.388Z,101752.47
2018-09-20T02:56:49.660Z,101752.19
2018-09-20T02:59:18.570Z,101746.72
2018-09-20T03:01:47.646Z,101744.78
2018-09-20T03:04:16.695Z,101736.05
2018-09-20T03:06:45.570Z,101735.84
2018-09-20T03:09:14.873Z,101732.31
2018-09-20T03:11:43.986Z,101728.86
2018-09-20T03:14:14.137Z,101727.04
2018-09-20T03:16:43.755Z,101727.21
2018-09-20T03:19:13.611Z,101722.63
2018-09-20T03:21:43.705Z,101719.78
2018-09-20T03:24:12.818Z,101715.81
2018-09-20T03:26:43.065Z,101715.11
2018-09-20T03:29:11.824Z,101706.28
2018-09-20T03:31:41.466Z,101702.53
2018-09-20T03:34:13.498Z,101700.45
2018-09-20T03:36:42.520Z,101698.47
2018-09-20T03:39:12.579Z,101701.20
2018-09-20T03:41:41.600Z,101700.84
2018-09-20T03:44:12.178Z,101697.19
2018-09-20T03:46:43.248Z,101698.13
2018-09-20T03:49:12.236Z,101697.08
2018-09-20T03:51:41.240Z,101706.03
2018-09-20T03:54:10.875Z,101703.05
2018-09-20T03:56:41.294Z,101707.13
2018-09-20T03:59:10.365Z,101709.05
2018-09-20T04:01:39.894Z,101703.87
2018-09-20T04:04:10.435Z,101702.45
2018-09-20T04:06:39.463Z,101697.16
2018-09-20T04:09:11.081Z,101699.75
2018-09-20T04:11:40.387Z,101693.02
2018-09-20T04:14:09.370Z,101693.77
2018-09-20T04:16:39.710Z,101698.25
2018-09-20T04:19:08.609Z,101687.53
2018-09-20T04:21:37.911Z,101690.53
2018-09-20T04:24:07.358Z,101695.05
2018-09-20T04:26:37.375Z,101694.33
2018-09-20T04:29:07.429Z,101700.63
2018-09-20T04:31:39.531Z,101706.95
2018-09-20T04:34:08.521Z,101699.80
2018-09-20T04:36:37.501Z,101705.94
2018-09-20T04:39:10.077Z,101704.37
2018-09-20T04:41:39.673Z,101699.91
2018-09-20T04:44:08.501Z,101700.07
2018-09-20T04:46:37.631Z,101694.37
2018-09-20T04:49:06.617Z,101697.48
2018-09-20T04:51:35.596Z,101691.08
2018-09-20T04:54:04.646Z,101682.16
2018-09-20T04:56:33.666Z,101690.16
2018-09-20T04:59:04.973Z,101690.32
2018-09-20T05:01:33.980Z,101688.16
2018-09-20T05:04:03.602Z,101683.97
2018-09-20T05:06:32.440Z,101681.75
2018-09-20T05:09:01.468Z,101680.98
2018-09-20T05:11:30.492Z,101682.52
2018-09-20T05:13:59.516Z,101672.66
2018-09-20T05:16:31.173Z,101669.83
2018-09-20T05:19:01.124Z,101682.95
2018-09-20T05:21:31.093Z,101681.69
2018-09-20T05:23:59.918Z,101683.67
2018-09-20T05:26:29.125Z,101681.95
2018-09-20T05:28:58.611Z,101681.63
2018-09-20T05:31:27.470Z,101679.70
2018-09-20T05:33:58.191Z,101680.95
2018-09-20T05:36:28.295Z,101680.50
2018-09-20T05:38:57.759Z,101679.67
2018-09-20T05:41:28.124Z,101678.84
2018-09-20T05:43:57.985Z,101679.73
2018-09-20T05:46:26.897Z,101672.20
2018-09-20T05:48:56.049Z,101686.20
2018-09-20T05:51:25.578Z,101685.72
2018-09-20T05:53:55.566Z,101679.42
2018-09-20T05:56:27.230Z,101681.90
2018-09-20T05:58:56.104Z,101688.27
2018-09-20T06:01:25.002Z,101680.75
2018-09-20T06:03:56.162Z,101685.22
2018-09-20T06:06:25.912Z,101683.56
2018-09-20T06:08:58.290Z,101687.53
2018-09-20T06:11:27.950Z,101678.71
2018-09-20T06:13:57.569Z,101681.95
2018-09-20T06:16:26.490Z,101688.14
2018-09-20T06:21:38.327Z,101690.78
2018-09-20T06:24:09.864Z,101686.77
2018-09-20T06:26:39.338Z,101695.09
2018-09-20T06:29:10.994Z,101693.83
2018-09-20T06:31:39.928Z,101692.06
2018-09-20T06:34:09.680Z,101686.48
2018-09-20T06:36:38.683Z,101687.70
2018-09-20T06:39:10.622Z,101681.20
2018-09-20T06:41:40.732Z,101683.81
2018-09-20T06:44:10.198Z,101682.96
2018-09-20T06:46:38.948Z,101677.40
2018-09-20T06:49:08.721Z,101677.78
2018-09-20T06:51:38.977Z,101686.56
2018-09-20T06:54:08.779Z,101683.30
2018-09-20T06:56:39.144Z,101690.16
2018-09-20T06:59:07.980Z,101696.59
2018-09-20T07:01:38.063Z,101697.34
2018-09-20T07:04:08.023Z,101697.58
2018-09-20T07:06:37.616Z,101698.70
2018-09-20T07:09:12.517Z,101694.47
2018-09-20T07:11:45.200Z,101689.75
2018-09-20T07:14:15.166Z,101691.47
2018-09-20T07:16:44.127Z,101701.32
2018-09-20T07:19:15.198Z,101698.48
2018-09-20T07:21:46.939Z,101698.25
2018-09-20T07:24:16.880Z,101703.98
2018-09-20T07:26:45.722Z,101706.06
2018-09-20T07:29:15.552Z,101708.03
2018-09-20T07:31:46.698Z,101699.20
2018-09-20T07:34:15.421Z,101706.56
2018-09-20T07:36:46.240Z,101703.84
2018-09-20T07:39:15.257Z,101703.08
2018-09-20T07:41:44.134Z,101697.08
2018-09-20T07:44:12.909Z,101690.88
2018-09-20T07:46:41.720Z,101692.34
2018-09-20T07:49:10.843Z,101685.02
2018-09-20T07:51:39.839Z,101681.22
2018-09-20T07:54:08.977Z,101678.00
2018-09-20T07:56:38.154Z,101682.26
2018-09-20T07:59:06.969Z,101679.15
2018-09-20T08:01:35.699Z,101680.03
2018-09-20T08:04:04.550Z,101683.02
2018-09-20T08:06:36.084Z,101679.61
2018-09-20T08:09:10.894Z,101674.47
2018-09-20T08:11:42.009Z,101675.88
2018-09-20T08:14:10.827Z,101677.00
2018-09-20T08:16:39.684Z,101669.96
2018-09-20T08:19:09.410Z,101676.55
2018-09-20T08:21:38.338Z,101671.50
2018-09-20T08:24:07.188Z,101686.31
2018-09-20T08:26:36.680Z,101684.78
2018-09-20T08:29:06.294Z,101693.27
2018-09-20T08:31:35.135Z,101688.03
2018-09-20T08:34:04.930Z,101693.70
2018-09-20T08:36:33.743Z,101688.98
2018-09-20T08:39:03.505Z,101687.89
2018-09-20T08:41:32.409Z,101687.98
2018-09-20T08:44:01.551Z,101687.42
2018-09-20T08:46:30.256Z,101691.18
2018-09-20T08:48:59.072Z,101685.25
2018-09-20T08:51:29.656Z,101686.12
2018-09-20T08:53:58.510Z,101669.58
2018-09-20T08:56:27.956Z,101671.92
2018-09-20T08:58:56.724Z,101673.84
2018-09-20T09:01:25.472Z,101671.05
2018-09-20T09:03:55.359Z,101681.75
2018-09-20T09:06:26.195Z,101674.42
2018-09-20T09:08:55.272Z,101680.72
2018-09-20T09:11:24.817Z,101686.42
2018-09-20T09:13:53.557Z,101681.11
2018-09-20T09:16:22.315Z,101677.45
2018-09-20T09:18:51.902Z,101670.17
2018-09-20T09:21:21.013Z,101669.10
2018-09-20T09:23:49.937Z,101668.84
2018-09-20T09:26:26.251Z,101668.52
2018-09-20T09:28:58.786Z,101674.64
2018-09-20T09:31:27.684Z,101666.23
2018-09-20T09:37:22.407Z,101662.96
2018-09-20T09:39:51.257Z,101665.77
2018-09-20T09:42:21.000Z,101671.20
2018-09-20T09:44:50.123Z,101666.91
2018-09-20T09:47:19.051Z,101659.56
2018-09-20T09:49:48.009Z,101616.97
2018-09-20T09:52:16.797Z,101649.20
2018-09-20T09:54:45.688Z,101644.45
2018-09-20T09:59:42.157Z,101657.44
2018-09-20T10:02:10.860Z,101661.86
2018-09-20T10:04:40.788Z,101662.50
2018-09-20T10:07:14.370Z,101656.87
2018-09-20T10:09:44.618Z,101653.34
2018-09-20T10:12:13.436Z,101641.88
2018-09-20T10:14:42.206Z,101645.17
2018-09-20T10:17:10.993Z,101646.09
2018-09-20T10:19:40.871Z,101639.62
2018-09-20T10:22:10.388Z,101648.72
2018-09-20T10:24:39.261Z,101639.77
2018-09-20T10:27:08.039Z,101638.03
2018-09-20T10:29:36.831Z,101636.23
2018-09-20T10:32:06.135Z,101648.70
2018-09-20T10:34:37.497Z,101644.10
2018-09-20T10:37:08.877Z,101649.09
2018-09-20T10:39:37.475Z,101636.48
2018-09-20T10:42:06.214Z,101633.64
2018-09-20T10:44:35.106Z,101632.19
2018-09-20T10:47:03.989Z,101628.92
2018-09-20T10:49:32.721Z,101630.80
2018-09-20T10:52:01.574Z,101623.07
2018-09-20T10:54:30.327Z,101620.97
2018-09-20T10:56:59.763Z,101623.73
2018-09-20T10:59:28.524Z,101621.27
2018-09-20T11:01:57.367Z,101624.84
2018-09-20T11:04:26.004Z,101610.03
2018-09-20T11:06:55.309Z,101595.11
2018-09-20T11:09:23.889Z,101595.73
2018-09-20T11:11:52.604Z,101605.14
2018-09-20T11:14:21.310Z,101587.53
2018-09-20T11:16:50.279Z,101586.66
2018-09-20T11:19:19.202Z,101583.55
2018-09-20T11:21:47.882Z,101592.02
2018-09-20T11:24:16.542Z,101586.53
2018-09-20T11:26:45.184Z,101585.26
2018-09-20T11:29:13.915Z,101570.86
2018-09-20T11:31:42.511Z,101571.72
2018-09-20T11:34:11.627Z,101571.56
2018-09-20T11:36:41.015Z,101571.66
2018-09-20T11:39:11.886Z,101573.02
2018-09-20T11:41:40.654Z,101578.81
2018-09-20T11:44:09.769Z,101577.45
2018-09-20T11:46:38.538Z,101569.20
2018-09-20T11:49:08.356Z,101570.05
2018-09-20T11:51:37.399Z,101575.63
2018-09-20T11:54:06.311Z,101568.34
2018-09-20T11:56:36.236Z,101572.09
2018-09-20T11:59:05.520Z,101578.02
2018-09-20T12:01:34.346Z,101566.83
2018-09-20T12:04:03.023Z,101569.63
2018-09-20T12:06:31.735Z,101565.44
2018-09-20T12:09:00.395Z,101555.59
2018-09-20T12:11:29.086Z,101553.30
2018-09-20T12:13:58.160Z,101552.98
2018-09-20T12:16:27.025Z,101549.31
2018-09-20T12:18:55.793Z,101541.63
2018-09-20T12:21:24.887Z,101541.86
2018-09-20T12:23:53.480Z,101535.05
2018-09-20T12:26:22.472Z,101530.48
2018-09-20T12:28:51.055Z,101540.80
2018-09-20T12:31:19.707Z,101539.67
2018-09-20T12:33:48.589Z,101533.33
2018-09-20T12:36:17.276Z,101528.66
2018-09-20T12:38:46.081Z,101524.27
2018-09-20T12:41:14.910Z,101517.31
2018-09-20T12:43:44.403Z,101519.25
2018-09-20T12:46:13.123Z,101518.60
2018-09-20T12:48:41.723Z,101507.52
2018-09-20T12:51:10.579Z,101500.47
2018-09-20T12:53:39.200Z,101490.75
2018-09-20T12:56:07.991Z,101492.43
2018-09-20T12:58:40.901Z,101490.95
2018-09-20T13:01:09.811Z,101486.57
2018-09-20T13:03:38.860Z,101493.78
2018-09-20T13:06:07.804Z,101492.91
2018-09-20T13:08:36.626Z,101496.16
2018-09-20T13:11:05.412Z,101489.26
2018-09-20T13:13:34.215Z,101478.31
2018-09-20T13:16:03.004Z,101478.28
2018-09-20T13:18:31.617Z,101480.68
2018-09-20T13:21:00.773Z,101469.58
2018-09-20T13:23:29.447Z,101473.13
2018-09-20T13:25:58.279Z,101463.89
2018-09-20T13:28:26.889Z,101453.09
2018-09-20T13:30:55.633Z,101449.57
2018-09-20T13:33:24.203Z,101445.84
2018-09-20T13:35:52.940Z,101441.48
2018-09-20T13:38:21.704Z,101436.41
2018-09-20T13:40:50.354Z,101425.77
2018-09-20T13:43:20.262Z,101425.89
2018-09-20T13:45:49.151Z,101432.18
2018-09-20T13:48:17.835Z,101427.39
2018-09-20T13:50:48.274Z,101424.99
2018-09-20T13:53:17.715Z,101412.23
2018-09-20T13:55:46.418Z,101402.32
2018-09-20T13:58:15.152Z,101406.33
2018-09-20T14:00:43.803Z,101398.40
2018-09-20T14:03:12.513Z,101400.59
2018-09-20T14:05:42.131Z,101396.13
2018-09-20T14:08:10.715Z,101399.27
2018-09-20T14:10:39.563Z,101388.95
2018-09-20T14:13:08.335Z,101389.09
2018-09-20T14:15:37.141Z,101379.61
2018-09-20T14:18:05.748Z,101376.74
2018-09-20T14:20:34.560Z,101372.81
2018-09-20T14:23:03.379Z,101379.25
2018-09-20T14:25:31.983Z,101376.37
2018-09-20T14:28:00.861Z,101378.91
2018-09-20T14:30:30.384Z,101370.81
2018-09-20T14:32:59.138Z,101363.20
2018-09-20T14:35:28.600Z,101345.38
2018-09-20T14:37:57.418Z,101348.56
2018-09-20T14:40:26.412Z,101356.34
2018-09-20T14:42:55.292Z,101355.81
2018-09-20T14:45:24.192Z,101338.20
2018-09-20T14:47:53.783Z,101336.19
2018-09-20T14:50:22.577Z,101338.81
2018-09-20T14:52:51.163Z,101328.59
2018-09-20T14:55:19.739Z,101314.70
2018-09-20T14:57:48.537Z,101312.47
2018-09-20T15:00:17.433Z,101318.90
2018-09-20T15:02:46.457Z,101322.16
2018-09-20T15:05:15.297Z,101311.27
2018-09-20T15:07:44.805Z,101310.99
2018-09-20T15:10:14.917Z,101307.64
2018-09-20T15:12:44.037Z,101308.58
2018-09-20T15:15:13.156Z,101300.18
2018-09-20T15:17:42.148Z,101295.87
2018-09-20T15:20:11.850Z,101298.41
2018-09-20T15:22:40.876Z,101292.64
2018-09-20T15:25:09.854Z,101293.57
2018-09-20T15:27:39.412Z,101288.55
2018-09-20T15:30:11.083Z,101288.22
2018-09-20T15:32:39.871Z,101283.70
2018-09-20T15:35:08.442Z,101287.59
2018-09-20T15:37:37.520Z,101286.22
2018-09-20T15:40:06.570Z,101281.03
2018-09-20T15:42:36.622Z,101279.33
2018-09-20T15:45:05.570Z,101276.80
2018-09-20T15:47:34.669Z,101271.63
2018-09-20T15:50:03.481Z,101268.42
2018-09-20T15:52:32.094Z,101262.06
2018-09-20T15:55:01.071Z,101261.70
2018-09-20T15:57:29.766Z,101255.99
2018-09-20T15:59:58.342Z,101265.73
2018-09-20T16:02:27.143Z,101265.41
2018-09-20T16:04:55.724Z,101261.72
2018-09-20T16:07:24.326Z,101262.44
2018-09-20T16:09:52.897Z,101262.62
2018-09-20T16:12:21.657Z,101258.13
2018-09-20T16:14:50.271Z,101260.87
2018-09-20T16:17:18.907Z,101254.94
2018-09-20T16:19:48.040Z,101254.94
2018-09-20T16:22:16.721Z,101256.62
2018-09-20T16:24:45.368Z,101248.34
2018-09-20T16:27:13.923Z,101234.05
2018-09-20T16:30:10.952Z,101236.42
2018-09-20T16:33:12.963Z,101235.65
2018-09-20T16:35:52.188Z,101242.09
2018-09-20T16:38:41.291Z,101235.45
2018-09-20T16:41:12.627Z,101228.91
2018-09-20T16:43:41.365Z,101222.39
2018-09-20T16:46:10.129Z,101229.97
2018-09-20T16:48:39.141Z,101222.48
2018-09-20T16:51:07.886Z,101221.00
2018-09-20T16:53:36.800Z,101214.48
2018-09-20T16:56:07.064Z,101220.45
2018-09-20T16:58:35.892Z,101218.53
2018-09-20T17:01:04.489Z,101205.52
2018-09-20T17:03:33.348Z,101203.98
2018-09-20T17:06:01.993Z,101203.31
2018-09-20T17:08:30.891Z,101203.95
2018-09-20T17:10:59.614Z,101203.36
2018-09-20T17:13:28.621Z,101201.48
2018-09-20T17:15:57.435Z,101194.77
2018-09-20T17:18:26.506Z,101192.20
2018-09-20T17:20:55.164Z,101193.03
2018-09-20T17:23:24.025Z,101186.64
2018-09-20T17:25:52.765Z,101186.29
2018-09-20T17:28:21.311Z,101178.61
2018-09-20T17:30:49.919Z,101184.09
2018-09-20T17:33:18.564Z,101177.62
2018-09-20T17:35:47.830Z,101179.82
2018-09-20T17:38:19.379Z,101177.20
2018-09-20T17:40:51.301Z,101172.28
2018-09-20T17:43:23.170Z,101170.62
2018-09-20T17:45:51.785Z,101167.47
2018-09-20T17:48:20.463Z,101174.02
2018-09-20T17:50:49.902Z,101168.67
2018-09-20T17:53:19.117Z,101161.52
2018-09-20T17:55:48.434Z,101164.31
2018-09-20T17:58:17.809Z,101160.50
2018-09-20T18:00:46.616Z,101152.72
2018-09-20T18:03:15.730Z,101153.55
2018-09-20T18:05:44.634Z,101148.56
2018-09-20T18:08:13.567Z,101142.71
2018-09-20T18:10:45.211Z,101143.06
2018-09-20T18:13:15.104Z,101140.91
2018-09-20T18:15:43.840Z,101137.91
2018-09-20T18:18:13.387Z,101135.05
2018-09-20T18:20:42.265Z,101132.49
2018-09-20T18:23:11.063Z,101136.45
2018-09-20T18:25:39.833Z,101132.92
2018-09-20T18:28:09.187Z,101123.89
2018-09-20T18:30:38.034Z,101122.47
2018-09-20T18:33:06.983Z,101125.83
2018-09-20T18:35:35.842Z,101121.36
2018-09-20T18:38:04.998Z,101116.60
2018-09-20T18:40:33.922Z,101118.80
2018-09-20T18:43:03.356Z,101123.23
2018-09-20T18:45:32.020Z,101115.37
2018-09-20T18:48:00.897Z,101119.99
2018-09-20T18:50:30.225Z,101102.34
2018-09-20T18:52:59.357Z,101100.73
2018-09-20T18:55:28.140Z,101105.36
2018-09-20T18:57:56.894Z,101104.89
2018-09-20T19:00:25.791Z,101101.03
2018-09-20T19:02:54.516Z,101099.40
2018-09-20T19:05:23.548Z,101094.16
2018-09-20T19:07:52.400Z,101089.95
2018-09-20T19:10:23.557Z,101087.66
2018-09-20T19:12:52.431Z,101084.68
2018-09-20T19:15:21.237Z,101081.23
2018-09-20T19:17:50.007Z,101084.14
2018-09-20T19:20:19.507Z,101080.55
2018-09-20T19:22:48.221Z,101075.88
2018-09-20T19:25:16.822Z,101076.94
2018-09-20T19:27:46.053Z,101070.33
2018-09-20T19:30:14.936Z,101061.72
2018-09-20T19:32:43.712Z,101061.51
2018-09-20T19:35:12.337Z,101053.81
2018-09-20T19:37:40.990Z,101045.67
2018-09-20T19:40:09.634Z,101042.88
2018-09-20T19:42:38.874Z,101039.71
2018-09-20T19:45:07.571Z,101029.95
2018-09-20T19:47:36.297Z,101034.98
2018-09-20T19:50:05.770Z,101029.52
2018-09-20T19:52:34.646Z,101020.67
2018-09-20T19:55:03.299Z,101018.88
2018-09-20T19:57:31.933Z,101013.00
2018-09-20T20:00:00.752Z,101012.66
2018-09-20T20:02:29.519Z,101011.77
2018-09-20T20:04:58.253Z,101020.16
2018-09-20T20:07:27.172Z,101014.20
2018-09-20T20:09:56.528Z,101009.09
2018-09-20T20:12:25.319Z,101002.48
2018-09-20T20:14:54.259Z,101001.66
2018-09-20T20:17:23.231Z,100998.09
2018-09-20T20:19:51.980Z,100989.62
2018-09-20T20:22:20.760Z,100988.90
2018-09-20T20:24:49.832Z,100976.60
2018-09-20T20:27:18.765Z,100975.81
2018-09-20T20:29:47.608Z,100971.20
2018-09-20T20:32:16.990Z,100965.39
2018-09-20T20:34:46.085Z,100958.95
2018-09-20T20:37:15.457Z,100957.34
2018-09-20T20:39:44.471Z,100944.93
2018-09-20T20:42:13.624Z,100937.60
2018-09-20T20:44:43.472Z,100936.55
2018-09-20T20:47:12.374Z,100935.98
2018-09-20T20:49:41.358Z,100930.81
2018-09-20T20:52:11.364Z,100925.19
2018-09-20T20:54:40.358Z,100928.34
2018-09-20T20:57:09.298Z,100926.89
2018-09-20T20:59:38.761Z,100923.58
2018-09-20T21:02:07.644Z,100921.48
2018-09-20T21:04:36.691Z,100918.96
2018-09-20T21:07:05.586Z,100917.59
2018-09-20T21:09:34.409Z,100909.81
2018-09-20T21:12:04.223Z,100903.67
2018-09-20T21:14:33.461Z,100898.69
2018-09-20T21:17:02.384Z,100897.53
2018-09-20T21:19:31.460Z,100890.94
2018-09-20T21:22:02.194Z,100881.33
2018-09-20T21:24:31.176Z,100877.13
2018-09-20T21:27:00.088Z,100867.08
2018-09-20T21:29:29.004Z,100857.56
2018-09-20T21:31:57.894Z,100858.06
2018-09-20T21:34:26.830Z,100849.25
2018-09-20T21:36:55.962Z,100849.90
2018-09-20T21:39:24.642Z,100851.80
2018-09-20T21:41:54.480Z,100843.81
2018-09-20T21:44:24.103Z,100841.23
2018-09-20T21:46:52.923Z,100849.25
2018-09-20T21:49:21.672Z,100851.48
2018-09-20T21:51:50.482Z,100841.32
2018-09-20T21:54:19.318Z,100839.91
2018-09-20T21:56:48.370Z,100835.97
2018-09-20T21:59:17.231Z,100839.31
2018-09-20T22:01:51.621Z,100828.27
2018-09-20T22:04:21.346Z,100827.36
2018-09-20T22:06:50.483Z,100821.89
2018-09-20T22:09:19.570Z,100818.11
2018-09-20T22:11:48.679Z,100811.25
2018-09-20T22:14:17.572Z,100809.09
2018-09-20T22:16:46.557Z,100806.02
2018-09-20T22:19:16.863Z,100798.05
2018-09-20T22:21:45.731Z,100799.66
2018-09-20T22:24:14.633Z,100795.45
2018-09-20T22:26:44.583Z,100790.72
2018-09-20T22:29:13.607Z,100788.73
2018-09-20T22:31:43.222Z,100786.23
2018-09-20T22:34:12.001Z,100788.50
2018-09-20T22:36:40.854Z,100776.70
2018-09-20T22:39:12.476Z,100773.06
2018-09-20T22:41:41.296Z,100768.78
2018-09-20T22:44:11.227Z,100766.89
2018-09-20T22:46:40.024Z,100764.67
2018-09-20T22:49:08.830Z,100763.97
2018-09-20T22:51:37.943Z,100758.97
2018-09-20T22:54:10.318Z,100759.83
2018-09-20T22:56:39.854Z,100759.00
2018-09-20T22:59:08.670Z,100752.08
2018-09-20T23:01:38.079Z,100753.05
2018-09-20T23:04:07.091Z,100739.26
2018-09-20T23:06:36.639Z,100739.96
2018-09-20T23:09:11.151Z,100741.30
2018-09-20T23:11:40.885Z,100730.05
2018-09-20T23:14:11.477Z,100715.86
2018-09-20T23:16:40.386Z,100707.09
2018-09-20T23:19:09.809Z,100708.47
2018-09-20T23:21:39.311Z,100710.16
2018-09-20T23:24:08.136Z,100707.26
2018-09-20T23:26:36.902Z,100700.16
2018-09-20T23:29:05.717Z,100695.20
2018-09-20T23:31:34.603Z,100698.98
2018-09-20T23:34:04.418Z,100694.23
2018-09-20T23:36:34.061Z,100689.21
2018-09-20T23:39:03.005Z,100682.45
2018-09-20T23:41:31.784Z,100670.33
2018-09-20T23:44:02.039Z,100675.50
2018-09-20T23:46:31.494Z,100667.52
2018-09-20T23:49:00.555Z,100615.25
2018-09-20T23:51:31.420Z,100660.11
2018-09-20T23:54:00.350Z,100656.27
2018-09-20T23:56:29.224Z,100662.88
2018-09-20T23:58:58.421Z,100658.20
